Terminal Aerodrome Forecast
Issued by NWS Shreveport, LA

Home | Current Version | Previous Version | Text Only | Print | Product List | Glossary On
Versions: 1 2 3 4 5 6 7 8 9 10 11 12 13 14 15 16 17 18 19 20 21
000
FTUS44 KSHV 281429 AAA
TAFGGG
TAF AMD
KGGG 281429Z 2814/2912 23006KT P6SM BKN008
      TEMPO 2815/2816 SCT010
     FM281600 23006KT P6SM BKN020
      TEMPO 2816/2818 OVC012
     FM282300 16005KT P6SM SCT030
     FM290900 16005KT 4SM BR BKN010=

USA.gov is the U.S. government's official web portal to all federal, state and local government web resources and services.